Time;durP1;ratioP1;P1;durP2;ratioP2;P2;SDS_P1;SDS_P2;PMS_P1;PMS_P2;Temp;Humidity;BMP_temperature;BMP_pressure;BME280_temperature;BME280_humidity;BME280_pressure;Samples;Min_cycle;Max_cycle;Signal;HPM_P1;HPM_P2
2023/03/17 00:00:34;;;;;;;5.03;2.83;;;;;;;8.89;100.00;100600.78;5069132;28;20024;-51
2023/03/17 00:03:00;;;;;;;3.88;2.70;;;;;;;8.85;100.00;100593.28;5069520;28;20078;-52
2023/03/17 00:05:29;;;;;;;4.80;2.50;;;;;;;8.82;100.00;100582.88;5068558;28;20032;-50
2023/03/17 00:07:57;;;;;;;12.50;3.00;;;;;;;8.78;100.00;100583.25;5068597;28;20029;-52
2023/03/17 00:10:24;;;;;;;;;;;;;;;8.72;100.00;100575.09;5069155;28;20044;-50
2023/03/17 00:12:52;;;;;;;7.28;3.17;;;;;;;8.69;100.00;100575.41;5069785;28;19908;-50
2023/03/17 00:15:17;;;;;;;;;;;;;;;8.62;100.00;100579.81;5053115;28;20460;-50
2023/03/17 00:17:44;;;;;;;4.18;3.00;;;;;;;8.56;100.00;100576.84;5070011;28;20035;-50
2023/03/17 00:20:13;;;;;;;4.22;3.00;;;;;;;8.50;100.00;100566.78;5069871;28;20487;-51
2023/03/17 00:22:38;;;;;;;5.10;2.92;;;;;;;8.51;100.00;100568.47;5069786;28;20070;-53
2023/03/17 00:25:16;;;;;;;4.38;2.63;;;;;;;8.47;100.00;100572.50;5069159;28;20470;-52
2023/03/17 00:27:42;;;;;;;5.80;2.90;;;;;;;8.47;100.00;100572.50;5069645;28;20143;-51
2023/03/17 00:30:09;;;;;;;4.43;2.88;;;;;;;8.52;100.00;100585.41;5069296;28;20021;-50
2023/03/17 00:32:36;;;;;;;4.80;2.55;;;;;;;8.53;100.00;100597.78;5069256;28;20039;-52
2023/03/17 00:35:04;;;;;;;8.02;2.97;;;;;;;8.53;100.00;100598.66;5067942;28;20150;-50
2023/03/17 00:37:30;;;;;;;9.05;2.88;;;;;;;8.52;100.00;100594.28;5069623;28;20044;-51
2023/03/17 00:39:55;;;;;;;5.50;2.90;;;;;;;8.49;100.00;100586.59;5069591;28;20029;-54
2023/03/17 00:42:22;;;;;;;6.72;3.28;;;;;;;8.48;100.00;100578.72;5069575;28;20025;-53
2023/03/17 00:44:47;;;;;;;5.10;2.78;;;;;;;8.49;100.00;100569.66;5068880;28;20038;-51
2023/03/17 00:47:12;;;;;;;7.68;2.97;;;;;;;8.52;100.00;100547.84;5069298;28;20032;-51
2023/03/17 00:49:38;;;;;;;7.07;3.45;;;;;;;8.56;100.00;100560.75;5060930;28;20028;-53
2023/03/17 00:52:04;;;;;;;5.10;2.90;;;;;;;8.49;100.00;100570.50;5069189;28;20029;-50
2023/03/17 00:54:29;;;;;;;3.97;2.83;;;;;;;8.48;100.00;100574.19;5071534;28;20103;-52
2023/03/17 00:56:55;;;;;;;4.80;2.80;;;;;;;8.48;100.00;100574.19;5073229;28;20024;-50
2023/03/17 00:59:23;;;;;;;7.07;3.33;;;;;;;8.50;100.00;100572.16;5072655;28;20048;-52
2023/03/17 01:01:48;;;;;;;6.18;2.97;;;;;;;8.53;100.00;100579.88;5072335;28;20071;-50
2023/03/17 01:04:14;;;;;;;7.18;3.25;;;;;;;8.51;100.00;100576.53;5072501;28;20032;-55
2023/03/17 01:06:40;;;;;;;7.57;3.63;;;;;;;8.56;100.00;100578.69;5073059;28;20093;-53
2023/03/17 01:09:07;;;;;;;5.25;2.70;;;;;;;8.60;100.00;100581.84;5072825;28;20052;-51
2023/03/17 01:11:32;;;;;;;4.35;2.88;;;;;;;8.62;100.00;100574.47;5072991;28;20028;-54
2023/03/17 01:13:57;;;;;;;10.30;3.15;;;;;;;8.66;100.00;100573.94;5072148;28;20378;-54
2023/03/17 01:16:23;;;;;;;5.85;3.20;;;;;;;8.66;100.00;100571.25;5070565;28;20071;-51
2023/03/17 01:18:48;;;;;;;6.60;3.22;;;;;;;8.68;100.00;100573.75;5071082;28;20025;-53
2023/03/17 01:21:14;;;;;;;5.03;3.10;;;;;;;8.71;100.00;100570.72;5071905;28;20486;-51
2023/03/17 01:23:40;;;;;;;8.30;3.38;;;;;;;8.70;100.00;100563.69;5069841;28;20441;-52
2023/03/17 01:26:06;;;;;;;7.72;3.22;;;;;;;8.70;100.00;100551.09;5072560;28;20024;-53
2023/03/17 01:28:32;;;;;;;9.73;3.10;;;;;;;8.72;100.00;100548.25;5072554;28;20029;-50
2023/03/17 01:30:57;;;;;;;6.07;3.22;;;;;;;8.69;100.00;100549.44;5072098;28;20028;-52
2023/03/17 01:33:22;;;;;;;5.47;3.33;;;;;;;8.70;100.00;100540.38;5072435;28;20036;-52
2023/03/17 01:35:49;;;;;;;6.35;3.05;;;;;;;8.69;100.00;100535.16;5072346;28;20521;-52
2023/03/17 01:38:14;;;;;;;5.80;2.97;;;;;;;8.66;100.00;100544.44;5072711;28;20021;-50
2023/03/17 01:40:48;;;;;;;8.23;2.83;;;;;;;8.69;100.00;100537.84;5072468;28;20027;-51
2023/03/17 01:43:26;;;;;;;3.60;3.13;;;;;;;8.66;100.00;100528.34;5072281;28;20241;-52
2023/03/17 01:46:24;;;;;;;5.32;2.97;;;;;;;8.72;100.00;100527.63;5072150;28;20028;-54
2023/03/17 01:49:11;;;;;;;8.15;3.25;;;;;;;8.79;100.00;100538.47;5072134;28;20043;-51
2023/03/17 01:51:48;;;;;;;5.63;3.42;;;;;;;8.80;100.00;100534.78;5071426;28;20321;-55
2023/03/17 01:54:36;;;;;;;6.97;3.15;;;;;;;8.78;100.00;100534.13;5071469;28;20021;-51
2023/03/17 01:57:14;;;;;;;14.70;3.58;;;;;;;8.78;100.00;100526.06;5059018;28;20048;-51
2023/03/17 01:59:49;;;;;;;5.63;3.35;;;;;;;8.84;100.00;100519.97;5071607;28;20533;-52
2023/03/17 02:02:19;;;;;;;4.60;2.85;;;;;;;8.82;100.00;100522.03;5071460;28;20028;-51
2023/03/17 02:04:44;;;;;;;5.22;2.80;;;;;;;8.82;100.00;100527.41;5053675;28;20041;-53
2023/03/17 02:07:11;;;;;;;9.05;3.22;;;;;;;8.80;100.00;100526.72;5071150;28;20136;-50
2023/03/17 02:09:36;;;;;;;8.95;3.22;;;;;;;8.82;100.00;100531.91;5070105;28;20111;-53
2023/03/17 02:12:04;;;;;;;5.25;2.90;;;;;;;8.81;100.00;100525.69;5056921;28;20120;-52
2023/03/17 02:14:30;;;;;;;5.45;3.33;;;;;;;8.83;100.00;100518.31;5070278;28;20057;-51
2023/03/17 02:16:55;;;;;;;4.85;2.97;;;;;;;8.82;100.00;100516.66;5071508;28;20025;-51
2023/03/17 02:19:20;;;;;;;5.50;3.13;;;;;;;8.82;100.00;100511.28;5070867;28;20053;-55
2023/03/17 02:21:49;;;;;;;5.40;3.35;;;;;;;8.80;100.00;100513.31;5070819;28;20410;-54
2023/03/17 02:24:17;;;;;;;5.85;2.85;;;;;;;8.79;100.00;100517.84;5071207;28;20025;-53
2023/03/17 02:26:44;;;;;;;10.50;4.63;;;;;;;8.73;100.00;100517.72;5071092;28;20036;-53
2023/03/17 02:29:11;;;;;;;5.93;3.10;;;;;;;8.74;100.00;100522.06;5069610;28;20047;-54
2023/03/17 02:31:36;;;;;;;9.05;3.17;;;;;;;8.72;100.00;100519.56;5073727;28;20028;-55
2023/03/17 02:34:02;;;;;;;7.72;3.20;;;;;;;8.70;100.00;100521.59;5071216;28;20090;-53
2023/03/17 02:36:27;;;;;;;8.68;3.03;;;;;;;8.69;100.00;100516.38;5070894;28;20017;-52
2023/03/17 02:38:53;;;;;;;5.32;2.83;;;;;;;8.69;100.00;100521.75;5071454;28;20046;-53
2023/03/17 02:41:18;;;;;;;5.80;3.15;;;;;;;8.66;100.00;100516.75;5070822;28;20647;-52
2023/03/17 02:43:44;;;;;;;7.68;3.70;;;;;;;8.65;100.00;100509.72;5070814;28;20186;-51
2023/03/17 02:46:09;;;;;;;4.85;3.17;;;;;;;8.66;100.00;100516.75;5070423;28;20033;-51
2023/03/17 02:48:35;;;;;;;7.47;3.15;;;;;;;8.65;100.00;100507.88;5070479;28;20052;-50
2023/03/17 02:51:01;;;;;;;9.65;3.58;;;;;;;8.65;100.00;100517.78;5070574;28;20478;-51
2023/03/17 02:53:26;;;;;;;4.90;3.10;;;;;;;8.64;100.00;100510.75;5070774;28;20032;-51
2023/03/17 02:55:52;;;;;;;5.45;3.17;;;;;;;8.67;100.00;100510.38;5070665;28;20043;-51
2023/03/17 02:58:17;;;;;;;6.38;3.10;;;;;;;8.67;100.00;100507.69;5070594;28;20029;-52
2023/03/17 03:00:43;;;;;;;5.55;3.15;;;;;;;8.67;100.00;100529.16;5070095;28;20124;-51
2023/03/17 03:03:09;;;;;;;6.53;3.00;;;;;;;8.65;100.00;100520.44;5068242;28;20474;-50
2023/03/17 03:05:34;;;;;;;7.10;3.30;;;;;;;8.62;100.00;100510.09;5072256;28;20089;-51
2023/03/17 03:08:00;;;;;;;9.60;3.65;;;;;;;8.62;100.00;100507.41;5086080;28;20394;-53
2023/03/17 03:10:25;;;;;;;3.85;2.65;;;;;;;8.60;100.00;100517.47;5070314;28;20039;-51
2023/03/17 03:12:51;;;;;;;8.70;3.47;;;;;;;8.59;100.00;100527.38;5069565;28;20052;-51
2023/03/17 03:15:16;;;;;;;5.45;3.10;;;;;;;8.57;100.00;100527.53;5069008;28;20040;-53
2023/03/17 03:17:42;;;;;;;6.78;3.25;;;;;;;8.59;100.00;100526.53;5053320;28;20492;-51
2023/03/17 03:20:10;;;;;;;5.85;2.65;;;;;;;8.59;100.00;100529.22;5070298;28;20047;-51
2023/03/17 03:22:36;;;;;;;9.05;3.83;;;;;;;8.60;100.00;100528.19;5070534;28;20027;-52
2023/03/17 03:25:01;;;;;;;6.38;3.20;;;;;;;8.59;100.00;100516.63;5070538;28;20025;-51
2023/03/17 03:27:26;;;;;;;10.82;3.05;;;;;;;8.63;100.00;100517.94;5070098;28;20496;-53
2023/03/17 03:29:52;;;;;;;5.30;3.53;;;;;;;8.67;100.00;100515.75;5069311;28;20029;-53
2023/03/17 03:32:17;;;;;;;9.50;3.33;;;;;;;8.66;100.00;100528.34;5048746;28;20063;-54
2023/03/17 03:34:42;;;;;;;3.75;2.90;;;;;;;8.71;100.00;100535.84;5050846;28;20029;-54
2023/03/17 03:37:08;;;;;;;7.70;3.72;;;;;;;8.74;100.00;100524.75;5069926;28;20020;-51
2023/03/17 03:39:33;;;;;;;7.22;3.25;;;;;;;8.75;100.00;100527.25;5069628;28;20562;-54
2023/03/17 03:41:58;;;;;;;7.82;3.28;;;;;;;8.73;100.00;100533.81;5069793;28;20024;-51
2023/03/17 03:44:24;;;;;;;6.22;2.88;;;;;;;8.79;100.00;100533.09;5081371;28;20040;-54
2023/03/17 03:46:50;;;;;;;10.07;3.40;;;;;;;8.77;100.00;100540.50;5070104;28;20033;-51
2023/03/17 03:49:15;;;;;;;5.45;3.00;;;;;;;8.76;100.00;100541.50;5070038;28;20107;-55
2023/03/17 03:51:41;;;;;;;8.32;3.40;;;;;;;8.74;100.00;100549.75;5069278;28;20028;-54
2023/03/17 03:54:06;;;;;;;8.65;3.60;;;;;;;8.74;100.00;100547.06;5069286;28;20078;-53
2023/03/17 03:56:32;;;;;;;6.95;3.55;;;;;;;8.72;100.00;100545.56;5070393;28;20390;-51
2023/03/17 03:58:57;;;;;;;7.13;3.00;;;;;;;8.73;100.00;100557.97;5069234;28;20465;-51
2023/03/17 04:01:23;;;;;;;7.53;3.00;;;;;;;8.78;100.00;100553.72;5069236;28;20442;-53
2023/03/17 04:03:48;;;;;;;13.32;3.88;;;;;;;8.77;100.00;100552.06;5069899;28;20020;-51
2023/03/17 04:06:15;;;;;;;7.60;3.20;;;;;;;8.83;100.00;100550.53;5069517;28;20044;-54
2023/03/17 04:08:40;;;;;;;9.07;3.25;;;;;;;8.84;100.00;100544.13;5069108;28;20024;-55
2023/03/17 04:11:05;;;;;;;6.10;3.30;;;;;;;8.83;100.00;100541.63;5069322;28;20063;-53
2023/03/17 04:13:30;;;;;;;9.95;3.25;;;;;;;8.82;100.00;100526.53;5069166;28;20052;-53
2023/03/17 04:15:56;;;;;;;8.23;3.63;;;;;;;8.82;100.00;100542.63;5069113;28;20475;-54
2023/03/17 04:18:21;;;;;;;4.30;3.00;;;;;;;8.78;100.00;100539.47;5068947;28;20508;-54
2023/03/17 04:20:46;;;;;;;13.23;3.30;;;;;;;8.77;100.00;100540.50;5069076;28;20056;-54
2023/03/17 04:23:12;;;;;;;10.13;3.30;;;;;;;8.78;100.00;100531.44;5068968;28;20142;-53
2023/03/17 04:25:37;;;;;;;9.00;3.42;;;;;;;8.85;100.00;100542.31;5069346;28;20032;-53
2023/03/17 04:28:03;;;;;;;5.68;3.10;;;;;;;8.94;100.00;100541.22;5069591;28;20024;-54
2023/03/17 04:30:28;;;;;;;6.13;3.25;;;;;;;8.96;100.00;100540.03;5072730;28;20155;-53
2023/03/17 04:32:54;;;;;;;8.63;3.47;;;;;;;8.97;100.00;100547.06;5073257;28;20478;-51
2023/03/17 04:35:23;;;;;;;6.60;3.25;;;;;;;8.99;100.00;100544.22;5073051;28;20029;-54
2023/03/17 04:37:49;;;;;;;7.63;3.60;;;;;;;9.05;100.00;100542.66;5072681;28;20023;-55
2023/03/17 04:40:16;;;;;;;5.15;3.00;;;;;;;9.08;100.00;100545.81;5072741;28;20027;-52
2023/03/17 04:42:42;;;;;;;9.48;3.55;;;;;;;9.18;100.00;100537.50;5073203;28;20066;-53
2023/03/17 04:45:10;;;;;;;6.47;3.10;;;;;;;9.19;100.00;100517.72;5072918;28;20028;-50
2023/03/17 04:47:36;;;;;;;5.65;2.88;;;;;;;9.20;100.00;100525.56;5073219;28;20442;-52
2023/03/17 04:50:02;;;;;;;6.18;3.35;;;;;;;9.24;100.00;100542.16;5072842;28;20025;-53
2023/03/17 04:52:27;;;;;;;7.90;3.38;;;;;;;9.26;100.00;100540.13;5072446;28;20130;-51
2023/03/17 04:54:52;;;;;;;9.48;3.92;;;;;;;9.29;100.00;100549.66;5072870;28;20051;-51
2023/03/17 04:57:18;;;;;;;4.75;2.78;;;;;;;9.31;100.00;100536.91;5072663;28;20029;-55
2023/03/17 04:59:43;;;;;;;5.38;3.05;;;;;;;9.37;100.00;100504.81;5072499;28;20029;-53
2023/03/17 05:02:09;;;;;;;7.63;3.53;;;;;;;9.44;100.00;100499.50;5072603;28;20044;-55
2023/03/17 05:04:35;;;;;;;5.80;3.25;;;;;;;9.40;100.00;100515.19;5072071;28;20395;-53
2023/03/17 05:07:01;;;;;;;8.63;3.85;;;;;;;9.37;100.00;100523.59;5072749;28;20033;-50
2023/03/17 05:09:27;;;;;;;6.93;3.63;;;;;;;9.33;100.00;100513.41;5072840;28;20442;-51
2023/03/17 05:11:53;;;;;;;8.77;3.65;;;;;;;9.31;100.00;100527.00;5072352;28;20039;-52
2023/03/17 05:14:18;;;;;;;10.15;3.55;;;;;;;9.25;100.00;100518.84;5072108;28;20478;-51
2023/03/17 05:16:48;;;;;;;7.57;3.80;;;;;;;9.23;100.00;100497.53;5072464;28;20344;-51
2023/03/17 05:19:15;;;;;;;9.20;3.75;;;;;;;9.19;100.00;100464.03;5072514;28;20105;-51
2023/03/17 05:21:41;;;;;;;7.63;3.88;;;;;;;9.29;100.00;100464.56;5072719;28;20035;-52
2023/03/17 05:24:07;;;;;;;10.27;3.80;;;;;;;9.21;100.00;100461.97;5072432;28;20035;-53
2023/03/17 05:26:33;;;;;;;13.50;3.80;;;;;;;9.12;100.00;100498.81;5072417;28;20046;-54
2023/03/17 05:28:59;;;;;;;11.25;4.00;;;;;;;8.99;100.00;100498.56;5072725;28;20431;-53
2023/03/17 05:31:24;;;;;;;7.28;3.58;;;;;;;8.89;100.00;100528.31;5072166;28;20467;-52
2023/03/17 05:33:49;;;;;;;8.65;3.45;;;;;;;8.77;100.00;100540.50;5083835;28;20478;-53
2023/03/17 05:36:15;;;;;;;8.43;3.53;;;;;;;8.70;100.00;100534.16;5092523;28;20030;-54
2023/03/17 05:38:42;;;;;;;9.48;4.07;;;;;;;8.68;100.00;100530.81;5092483;28;20027;-52
2023/03/17 05:41:09;;;;;;;8.23;3.75;;;;;;;8.74;100.00;100524.75;5088539;28;20028;-55
2023/03/17 05:43:35;;;;;;;7.68;3.92;;;;;;;8.76;100.00;100533.44;5072748;28;20119;-53
2023/03/17 05:46:00;;;;;;;12.93;3.50;;;;;;;8.77;100.00;100535.97;5073365;28;20117;-53
2023/03/17 05:48:25;;;;;;;7.45;4.03;;;;;;;8.82;100.00;100531.91;5067442;28;20545;-56
2023/03/17 05:50:51;;;;;;;7.32;3.85;;;;;;;8.87;100.00;100532.19;5063334;28;20071;-52
2023/03/17 05:53:16;;;;;;;9.15;3.97;;;;;;;8.90;100.00;100508.56;5071365;28;20343;-54
2023/03/17 05:55:42;;;;;;;13.63;4.18;;;;;;;8.98;100.00;100497.75;5070720;28;20245;-53
2023/03/17 05:58:08;;;;;;;9.73;4.13;;;;;;;8.96;100.00;100502.44;5071492;28;20028;-52
2023/03/17 06:00:34;;;;;;;13.68;4.20;;;;;;;8.89;100.00;100501.50;5070737;28;20017;-51
2023/03/17 06:03:01;;;;;;;9.68;4.65;;;;;;;8.78;100.00;100492.00;5070929;28;20032;-54
2023/03/17 06:05:26;;;;;;;7.13;4.13;;;;;;;8.69;100.00;100500.28;5070486;28;20028;-54
2023/03/17 06:07:52;;;;;;;9.25;4.18;;;;;;;8.60;100.00;100506.72;5071177;28;20027;-52
2023/03/17 06:10:17;;;;;;;12.95;4.40;;;;;;;8.53;100.00;100502.09;5070179;28;20036;-52
2023/03/17 06:12:42;;;;;;;13.10;4.55;;;;;;;8.54;100.00;100513.66;5071498;28;20025;-54
2023/03/17 06:15:08;;;;;;;11.57;4.40;;;;;;;8.51;100.00;100527.41;5071333;28;20035;-51
2023/03/17 06:17:34;;;;;;;10.90;4.25;;;;;;;8.50;100.00;100526.56;5070874;28;20467;-54
2023/03/17 06:20:00;;;;;;;16.52;5.35;;;;;;;8.55;100.00;100526.88;5073367;28;20051;-53
2023/03/17 06:22:26;;;;;;;9.02;4.60;;;;;;;8.57;100.00;100532.91;5071386;28;20379;-51
2023/03/17 06:24:52;;;;;;;15.15;4.43;;;;;;;8.61;100.00;100525.34;5070768;28;20074;-52
2023/03/17 06:27:17;;;;;;;11.75;4.35;;;;;;;8.67;100.00;100529.16;5070978;28;20070;-51
2023/03/17 06:29:43;;;;;;;9.05;3.70;;;;;;;8.77;100.00;100530.59;5072188;28;20379;-50
2023/03/17 06:32:09;;;;;;;13.73;4.30;;;;;;;8.86;100.00;100515.28;5072985;28;20457;-53
2023/03/17 06:34:34;;;;;;;14.15;4.63;;;;;;;9.01;100.00;100509.97;5072744;28;20050;-54
2023/03/17 06:36:59;;;;;;;10.93;4.68;;;;;;;9.16;100.00;100532.34;5072006;28;20024;-53
2023/03/17 06:39:25;;;;;;;12.60;4.90;;;;;;;9.23;100.00;100535.13;5071710;28;20090;-53
2023/03/17 06:41:50;;;;;;;12.27;4.60;;;;;;;9.48;100.00;100505.34;5071446;28;20537;-54
2023/03/17 06:44:16;;;;;;;13.30;4.60;;;;;;;9.66;100.00;100521.94;5072216;28;20041;-51
2023/03/17 06:46:41;;;;;;;13.07;5.00;;;;;;;9.84;100.00;100532.34;5071037;28;20754;-51
2023/03/17 06:49:08;;;;;;;25.30;5.78;;;;;;;9.87;100.00;100538.22;5071123;28;20063;-51
2023/03/17 06:51:36;;;;;;;11.93;5.20;;;;;;;9.83;100.00;100536.06;5070439;28;20025;-52
2023/03/17 06:54:01;;;;;;;11.25;4.30;;;;;;;9.68;100.00;100525.28;5071413;28;20036;-51
2023/03/17 06:56:27;;;;;;;8.00;3.75;;;;;;;9.59;100.00;100539.84;5070393;28;20036;-53
2023/03/17 06:58:52;;;;;;;12.45;4.90;;;;;;;9.61;100.00;100545.84;5071200;28;20024;-52
2023/03/17 07:01:18;;;;;;;8.98;4.80;;;;;;;9.73;100.00;100538.19;5070688;28;20028;-51
2023/03/17 07:03:44;;;;;;;13.48;4.88;;;;;;;9.70;100.00;100536.69;5071164;28;20060;-52
2023/03/17 07:06:09;;;;;;;12.32;5.00;;;;;;;9.65;100.00;100541.78;5070447;28;20055;-52
2023/03/17 07:08:35;;;;;;;10.50;5.13;;;;;;;9.72;100.00;100528.47;5071062;28;20025;-53
2023/03/17 07:11:02;;;;;;;18.52;5.03;;;;;;;9.78;100.00;100525.88;5070108;28;20064;-53
2023/03/17 07:13:28;;;;;;;19.35;5.28;;;;;;;9.88;100.00;100523.75;5070860;28;20072;-50
2023/03/17 07:15:54;;;;;;;13.50;5.53;;;;;;;9.91;100.00;100522.53;5069209;28;20143;-51
2023/03/17 07:18:19;;;;;;;16.58;6.82;;;;;;;9.80;100.00;100523.00;5070188;28;20515;-51
2023/03/17 07:20:45;;;;;;;10.18;4.60;;;;;;;9.97;100.00;100504.81;5069182;28;20044;-52
2023/03/17 07:23:21;;;;;;;8.95;4.38;;;;;;;10.03;100.00;100510.31;5062966;28;20155;-51
2023/03/17 07:25:47;;;;;;;14.65;5.10;;;;;;;9.99;100.00;100516.22;5069788;28;20060;-51
2023/03/17 07:28:13;;;;;;;11.50;4.78;;;;;;;9.93;100.00;100530.44;5069372;28;20035;-53
2023/03/17 07:30:39;;;;;;;12.70;4.90;;;;;;;9.83;100.00;100547.66;5068388;28;20038;-52
2023/03/17 07:33:05;;;;;;;10.20;4.53;;;;;;;9.55;100.00;100582.34;5067492;28;20103;-51
2023/03/17 07:35:32;;;;;;;10.80;5.20;;;;;;;9.57;100.00;100566.06;5068938;28;20486;-51
2023/03/17 07:37:57;;;;;;;14.20;4.85;;;;;;;9.63;100.00;100559.94;5075189;28;20016;-51
2023/03/17 07:40:23;;;;;;;14.45;5.82;;;;;;;9.79;100.00;100559.78;5067410;28;20123;-54
2023/03/17 07:42:49;;;;;;;11.55;5.30;;;;;;;9.98;100.00;100554.88;5068121;28;20120;-53
2023/03/17 07:45:14;;;;;;;14.85;4.95;;;;;;;10.15;100.00;100548.31;5068828;28;20016;-53
2023/03/17 07:47:40;;;;;;;19.05;5.90;;;;;;;10.40;100.00;100545.31;5068824;28;20032;-54
2023/03/17 07:50:06;;;;;;;19.80;5.10;;;;;;;10.55;100.00;100546.13;5061227;28;20058;-51
2023/03/17 07:52:31;;;;;;;14.68;5.80;;;;;;;10.54;100.00;100539.09;5069260;28;20390;-50
2023/03/17 07:54:57;;;;;;;14.25;4.90;;;;;;;10.98;100.00;100530.06;5069688;28;20031;-53
2023/03/17 07:57:23;;;;;;;15.88;5.63;;;;;;;11.75;100.00;100531.09;5069610;28;20032;-52
2023/03/17 07:59:49;;;;;;;19.58;5.40;;;;;;;12.73;97.50;100545.28;5068984;28;20032;-55
2023/03/17 08:02:15;;;;;;;14.18;5.65;;;;;;;13.62;93.41;100544.16;5069903;28;20578;-54
2023/03/17 08:04:41;;;;;;;10.65;5.60;;;;;;;14.62;83.76;100533.09;5074710;28;20455;-53
2023/03/17 08:07:07;;;;;;;18.75;6.07;;;;;;;15.32;77.62;100527.63;5075324;28;20083;-52
2023/03/17 08:09:32;;;;;;;14.60;5.95;;;;;;;15.85;73.58;100531.75;5074819;28;20035;-55
2023/03/17 08:11:57;;;;;;;12.75;5.78;;;;;;;16.27;71.03;100527.31;5076146;28;20020;-53
2023/03/17 08:14:23;;;;;;;15.55;6.28;;;;;;;16.15;70.36;100526.44;5076705;28;20402;-52
2023/03/17 08:16:48;;;;;;;18.35;6.75;;;;;;;16.77;69.31;100528.97;5066767;28;20021;-52
2023/03/17 08:19:13;;;;;;;21.88;6.80;;;;;;;17.66;67.18;100535.34;5075402;28;20391;-56
2023/03/17 08:21:39;;;;;;;24.48;7.70;;;;;;;18.41;62.04;100541.94;5076559;28;20070;-53
2023/03/17 08:24:04;;;;;;;17.85;7.00;;;;;;;17.58;62.56;100551.22;5076474;28;20158;-52
2023/03/17 08:26:31;;;;;;;20.38;7.32;;;;;;;17.14;65.57;100556.94;5075746;28;20028;-53
2023/03/17 08:28:56;;;;;;;20.98;7.22;;;;;;;16.64;66.47;100551.72;5074510;28;20156;-54
2023/03/17 08:31:22;;;;;;;24.38;7.15;;;;;;;17.54;64.24;100556.31;5074643;28;20367;-54
2023/03/17 08:33:49;;;;;;;22.90;7.00;;;;;;;16.71;63.15;100567.97;5076403;28;20036;-54
2023/03/17 08:36:16;;;;;;;22.55;9.00;;;;;;;16.03;67.15;100558.91;5072510;28;20463;-56
2023/03/17 08:38:43;;;;;;;28.52;7.13;;;;;;;16.26;67.62;100562.88;5072279;28;20087;-53
2023/03/17 08:41:12;;;;;;;23.20;7.72;;;;;;;16.13;66.46;100556.53;5076772;28;20024;-55
2023/03/17 08:43:38;;;;;;;14.35;7.50;;;;;;;15.58;68.57;100559.94;5076999;28;20028;-52
2023/03/17 08:46:24;;;;;;;17.38;6.93;;;;;;;16.75;67.25;100547.44;5076551;28;20051;-55
2023/03/17 08:48:51;;;;;;;22.38;8.02;;;;;;;16.02;67.72;100558.09;5075758;28;20028;-53
2023/03/17 08:51:18;;;;;;;19.65;7.63;;;;;;;16.27;68.22;100553.66;5076205;28;20040;-54
2023/03/17 08:53:44;;;;;;;22.42;8.05;;;;;;;16.40;67.82;100562.50;5076359;28;20025;-54
2023/03/17 08:56:10;;;;;;;22.08;8.40;;;;;;;15.86;68.83;100563.28;5067095;28;20059;-51
2023/03/17 08:58:38;;;;;;;20.25;7.20;;;;;;;16.18;69.30;100558.56;5076032;28;20047;-53
2023/03/17 09:01:04;;;;;;;17.52;7.45;;;;;;;15.89;70.10;100560.13;5074608;28;20466;-55
2023/03/17 09:03:30;;;;;;;15.95;7.70;;;;;;;16.32;70.04;100561.94;5075056;28;20074;-53
2023/03/17 09:05:56;;;;;;;15.15;7.85;;;;;;;16.74;69.12;100562.88;5075979;28;20146;-53
2023/03/17 09:08:22;;;;;;;17.27;8.17;;;;;;;16.09;70.00;100581.63;5075440;28;20462;-53
2023/03/17 09:10:48;;;;;;;23.40;8.25;;;;;;;16.45;71.47;100581.63;5075343;28;20297;-51
2023/03/17 09:13:14;;;;;;;17.15;8.15;;;;;;;16.36;70.68;100587.63;5073259;28;20029;-54
2023/03/17 09:15:39;;;;;;;23.23;7.50;;;;;;;16.08;71.76;100588.13;5073792;28;20731;-50
2023/03/17 09:18:06;;;;;;;20.00;8.27;;;;;;;16.14;72.42;100587.22;5073344;28;20031;-50
2023/03/17 09:20:32;;;;;;;16.40;7.07;;;;;;;16.62;70.38;100591.91;5072993;28;20052;-47
2023/03/17 09:22:57;;;;;;;14.95;7.53;;;;;;;16.66;70.09;100599.34;5073560;28;20020;-49
2023/03/17 09:25:23;;;;;;;26.13;7.45;;;;;;;16.14;72.18;100600.78;5073683;28;20119;-49
2023/03/17 09:27:49;;;;;;;13.93;6.88;;;;;;;16.65;70.98;100596.88;5073809;28;20119;-52
2023/03/17 09:30:16;;;;;;;14.73;7.15;;;;;;;17.38;68.93;100605.94;5071675;28;20016;-52
2023/03/17 09:32:41;;;;;;;17.30;6.78;;;;;;;16.84;70.45;100608.59;5073904;28;20399;-48
2023/03/17 09:35:07;;;;;;;15.55;7.35;;;;;;;17.08;69.56;100598.63;5073139;28;20052;-50
2023/03/17 09:37:33;;;;;;;19.98;7.32;;;;;;;16.73;69.52;100599.28;5073682;28;20024;-50
2023/03/17 09:39:59;;;;;;;18.65;7.65;;;;;;;16.24;71.52;100607.38;5073418;28;20394;-49
2023/03/17 09:42:39;;;;;;;20.63;7.78;;;;;;;16.06;73.06;100606.50;5071168;28;20046;-50
2023/03/17 09:45:25;;;;;;;15.95;7.10;;;;;;;16.00;73.54;100600.09;5070925;28;20032;-50
2023/03/17 09:48:12;;;;;;;16.00;6.90;;;;;;;15.61;75.26;100609.38;5068731;28;20047;-47
2023/03/17 09:50:56;;;;;;;23.80;7.90;;;;;;;15.13;78.12;100613.47;5070326;28;20107;-49
2023/03/17 09:53:32;;;;;;;28.02;7.78;;;;;;;14.78;78.79;100613.03;5070397;28;20029;-49
2023/03/17 09:56:01;;;;;;;15.50;7.97;;;;;;;14.25;81.36;100625.66;5066947;28;20024;-52
2023/03/17 09:58:34;;;;;;;18.55;8.57;;;;;;;14.14;84.18;100626.31;5069662;28;20036;-50
2023/03/17 10:01:00;;;;;;;20.52;7.63;;;;;;;14.03;86.23;100633.19;5070203;28;20166;-53
2023/03/17 10:03:26;;;;;;;17.90;7.35;;;;;;;14.12;87.00;100647.34;5071105;28;20025;-51
2023/03/17 10:05:53;;;;;;;15.85;7.65;;;;;;;14.42;86.88;100638.72;5066432;28;20039;-49
2023/03/17 10:08:23;;;;;;;16.10;6.70;;;;;;;14.55;84.84;100640.63;5072151;28;20409;-50
2023/03/17 10:11:13;;;;;;;16.42;6.70;;;;;;;15.07;84.35;100644.97;5073395;28;20107;-50
2023/03/17 10:14:00;;;;;;;21.17;7.10;;;;;;;14.95;83.34;100640.44;5071628;28;20029;-47
2023/03/17 10:16:45;;;;;;;15.93;6.85;;;;;;;14.76;83.41;100643.03;5072067;28;20029;-48
2023/03/17 10:19:30;;;;;;;17.10;7.13;;;;;;;14.90;84.54;100641.09;5071908;28;20422;-48
2023/03/17 10:22:00;;;;;;;14.95;6.68;;;;;;;14.88;85.06;100648.63;5071346;28;20025;-50
2023/03/17 10:24:29;;;;;;;16.55;6.97;;;;;;;14.93;84.97;100632.56;5069918;28;20116;-49
2023/03/17 10:26:56;;;;;;;14.68;7.07;;;;;;;14.96;85.11;100625.88;5068748;28;20383;-50
2023/03/17 10:29:22;;;;;;;21.17;7.70;;;;;;;14.56;85.96;100628.72;5070919;28;20036;-52
2023/03/17 10:31:49;;;;;;;12.18;6.60;;;;;;;14.48;87.35;100629.75;5071226;28;20024;-48
2023/03/17 10:34:22;;;;;;;14.40;7.60;;;;;;;14.44;88.38;100623.13;5071007;28;20043;-50
2023/03/17 10:36:52;;;;;;;21.50;7.68;;;;;;;14.59;88.79;100618.31;5070788;28;20036;-48
2023/03/17 10:39:19;;;;;;;15.70;7.00;;;;;;;14.69;89.11;100610.56;5072157;28;20082;-48
2023/03/17 10:41:56;;;;;;;18.73;7.53;;;;;;;14.84;88.54;100617.56;5073202;28;20029;-49
2023/03/17 10:44:41;;;;;;;18.00;7.13;;;;;;;15.06;87.67;100613.50;5072568;28;20055;-48
2023/03/17 10:47:23;;;;;;;18.83;7.55;;;;;;;15.24;88.72;100607.34;5062611;28;20509;-49
2023/03/17 10:49:50;;;;;;;22.23;7.40;;;;;;;15.35;88.34;100614.78;5072944;28;20367;-49
2023/03/17 10:52:22;;;;;;;19.90;8.00;;;;;;;15.75;85.44;100616.41;5073162;28;20020;-50
2023/03/17 10:54:50;;;;;;;17.52;6.97;;;;;;;15.30;84.98;100606.47;5071599;28;20081;-48
2023/03/17 10:57:17;;;;;;;15.50;8.20;;;;;;;15.18;86.88;100608.22;5072958;28;20036;-48
2023/03/17 10:59:48;;;;;;;23.23;8.32;;;;;;;15.33;87.59;100599.78;5072550;28;20056;-48
2023/03/17 11:02:20;;;;;;;20.77;7.63;;;;;;;15.32;86.25;100603.53;5072845;28;20097;-48
2023/03/17 11:04:45;;;;;;;18.17;7.13;;;;;;;15.13;86.98;100600.72;5072605;28;20068;-53
2023/03/17 11:07:18;;;;;;;23.00;7.53;;;;;;;15.27;87.83;100616.91;5072436;28;20463;-49
2023/03/17 11:09:49;;;;;;;17.88;7.38;;;;;;;15.26;86.84;100607.97;5071892;28;20032;-49
2023/03/17 11:12:29;;;;;;;17.88;8.07;;;;;;;14.83;88.82;100610.50;5071695;28;20028;-51
2023/03/17 11:15:04;;;;;;;19.77;7.63;;;;;;;14.73;89.79;100599.28;5071578;28;20051;-48
2023/03/17 11:17:38;;;;;;;18.00;7.13;;;;;;;14.56;90.74;100605.19;5073264;28;20082;-48
2023/03/17 11:20:18;;;;;;;18.05;7.88;;;;;;;14.27;93.35;100612.75;5073202;28;20391;-49
2023/03/17 11:22:57;;;;;;;17.40;8.00;;;;;;;14.24;94.50;100596.09;5073416;28;20522;-48